createdAt,value
2023-01-13T00:00:29.540Z,5.8
2023-01-13T00:01:39.486Z,6.9
2023-01-13T00:02:49.503Z,5.9
2023-01-13T00:03:58.474Z,7.1
2023-01-13T00:05:08.479Z,7.5
2023-01-13T00:06:18.413Z,7.6
2023-01-13T00:07:28.345Z,5.9
2023-01-13T00:08:38.330Z,7.2
2023-01-13T00:09:47.355Z,6.4
2023-01-13T00:10:56.318Z,6.7
2023-01-13T00:12:06.301Z,6.5
2023-01-13T00:13:16.254Z,6.7
2023-01-13T00:14:26.140Z,6.2
2023-01-13T00:15:35.157Z,5.8
2023-01-13T00:16:43.942Z,6.1
2023-01-13T00:17:53.852Z,6
2023-01-13T00:19:04.114Z,6.5
2023-01-13T00:20:14.461Z,6.2
2023-01-13T00:21:25.960Z,7.2
2023-01-13T00:22:36.124Z,7.3
2023-01-13T00:23:46.093Z,6.1
2023-01-13T00:24:56.017Z,6.2
2023-01-13T00:26:05.910Z,6.6
2023-01-13T00:27:15.844Z,6.3
2023-01-13T00:28:24.737Z,7.9
2023-01-13T00:29:33.616Z,8
2023-01-13T00:30:43.536Z,7.9
2023-01-13T00:31:53.478Z,7.6
2023-01-13T00:33:03.467Z,6.9
2023-01-13T00:34:12.426Z,8.4
2023-01-13T00:35:21.350Z,7.7
2023-01-13T00:36:31.189Z,7.6
2023-01-13T00:37:41.096Z,2.2
2023-01-13T00:38:49.993Z,1.4
2023-01-13T00:39:59.946Z,1.4
2023-01-13T00:41:08.891Z,1.5
2023-01-13T00:42:18.821Z,1.9
2023-01-13T00:43:28.795Z,1
2023-01-13T00:44:37.777Z,1.1
2023-01-13T00:45:47.777Z,1
2023-01-13T00:46:56.740Z,0.7
2023-01-13T00:48:05.678Z,0.7
2023-01-13T00:49:14.776Z,0.6
2023-01-13T00:50:24.800Z,1.2
2023-01-13T00:51:34.733Z,0.9
2023-01-13T00:52:44.669Z,0.6
2023-01-13T00:53:54.645Z,0.6
2023-01-13T00:55:04.629Z,0.7
2023-01-13T00:56:14.570Z,0.4
2023-01-13T00:57:25.503Z,0.5
2023-01-13T00:58:35.459Z,0.5
2023-01-13T00:59:45.443Z,1
2023-01-13T01:00:56.542Z,2.2
2023-01-13T01:02:06.543Z,1.6
2023-01-13T01:03:15.414Z,1.3
2023-01-13T01:04:25.370Z,0.9
2023-01-13T01:05:35.358Z,1.4
2023-01-13T01:06:45.304Z,0.6
2023-01-13T01:07:54.291Z,0.7
2023-01-13T01:09:04.268Z,0.9
2023-01-13T01:10:14.351Z,0.6
2023-01-13T01:11:24.408Z,0.8
2023-01-13T01:12:34.322Z,0.5
2023-01-13T01:13:44.339Z,1.3
2023-01-13T01:14:53.313Z,0.7
2023-01-13T01:16:03.331Z,1
2023-01-13T01:17:12.217Z,0.8
2023-01-13T01:18:21.170Z,0.9
2023-01-13T01:19:31.152Z,0.8
2023-01-13T01:20:41.151Z,1.1
2023-01-13T01:21:51.081Z,0.9
2023-01-13T01:23:01.046Z,0.8
2023-01-13T01:24:11.008Z,0.9
2023-01-13T01:25:21.004Z,0.5
2023-01-13T01:26:30.957Z,0.4
2023-01-13T01:27:39.898Z,0.5
2023-01-13T01:28:49.841Z,0.2
2023-01-13T01:29:59.809Z,0.3
2023-01-13T01:31:08.831Z,0.3
2023-01-13T01:32:19.694Z,0.7
2023-01-13T01:33:28.686Z,0.5
2023-01-13T01:34:38.614Z,0.3
2023-01-13T01:35:48.732Z,0.3
2023-01-13T01:36:58.793Z,0.4
2023-01-13T01:38:08.750Z,0.4
2023-01-13T01:39:18.715Z,0.4
2023-01-13T01:40:28.664Z,0.5
2023-01-13T01:41:38.603Z,0.5
2023-01-13T01:42:47.743Z,0.4
2023-01-13T01:43:57.724Z,0.3
2023-01-13T01:45:06.672Z,0.4
2023-01-13T01:46:16.705Z,0.4
2023-01-13T01:47:25.623Z,0.4
2023-01-13T01:48:35.587Z,0.5
2023-01-13T01:49:45.554Z,0.3
2023-01-13T01:50:55.616Z,0.5
2023-01-13T01:52:05.557Z,0.4
2023-01-13T01:53:15.540Z,0.5
2023-01-13T01:54:24.528Z,0.5
2023-01-13T01:55:33.468Z,0.5
2023-01-13T01:56:43.441Z,0.4
2023-01-13T01:57:52.384Z,0.4
2023-01-13T01:59:01.331Z,0.6
2023-01-13T02:00:11.306Z,0.5
2023-01-13T02:01:21.417Z,0.4
2023-01-13T02:02:31.240Z,0.4
2023-01-13T02:03:41.163Z,0.6
2023-01-13T02:04:50.125Z,0.4
2023-01-13T02:06:00.148Z,0.4
2023-01-13T02:07:10.089Z,2.4
2023-01-13T02:08:20.084Z,0.4
2023-01-13T02:09:29.040Z,0.4
2023-01-13T02:10:39.104Z,0.8
2023-01-13T02:11:49.105Z,0.4
2023-01-13T02:12:58.105Z,0.3
2023-01-13T02:14:08.046Z,0.3
2023-01-13T02:15:17.994Z,0.4
2023-01-13T02:16:27.972Z,0.4
2023-01-13T02:17:37.898Z,0.4
2023-01-13T02:18:46.848Z,0.5
2023-01-13T02:19:56.839Z,0.4
2023-01-13T02:21:06.865Z,0.3
2023-01-13T02:22:16.787Z,0.5
2023-01-13T02:23:25.794Z,0.5
2023-01-13T02:24:35.747Z,0.4
2023-01-13T02:25:45.726Z,0.5
2023-01-13T02:26:55.684Z,0.5
2023-01-13T02:28:05.622Z,0.6
2023-01-13T02:29:15.619Z,0.5
2023-01-13T02:30:25.581Z,1.3
2023-01-13T02:31:35.605Z,0.4
2023-01-13T02:32:44.505Z,0.5
2023-01-13T02:33:54.481Z,0.4
2023-01-13T02:35:03.498Z,0.4
2023-01-13T02:36:13.473Z,0.5
2023-01-13T02:37:23.423Z,0.4
2023-01-13T02:38:32.402Z,0.5
2023-01-13T02:39:42.362Z,0.4
2023-01-13T02:40:52.345Z,0.4
2023-01-13T02:42:02.359Z,0.6
2023-01-13T02:43:12.323Z,0.6
2023-01-13T02:44:23.288Z,0.5
2023-01-13T02:45:32.331Z,0.7
2023-01-13T02:46:42.262Z,0.5
2023-01-13T02:47:50.204Z,0.7
2023-01-13T02:49:00.126Z,0.5
2023-01-13T02:50:09.085Z,0.5
2023-01-13T02:51:18.046Z,0.6
2023-01-13T02:52:28.024Z,0.6
2023-01-13T02:53:36.960Z,0.6
2023-01-13T02:54:46.900Z,0.5
2023-01-13T02:55:56.892Z,0.5
2023-01-13T02:57:06.890Z,0.5
2023-01-13T02:58:16.873Z,0.4
2023-01-13T02:59:26.752Z,0.5
2023-01-13T03:00:36.511Z,0.3
2023-01-13T03:01:46.408Z,0.4
2023-01-13T03:02:56.023Z,0.4
2023-01-13T03:04:05.756Z,0.6
2023-01-13T03:05:15.530Z,0.4
2023-01-13T03:06:25.286Z,0.4
2023-01-13T03:07:34.985Z,0.5
2023-01-13T03:08:43.753Z,0.4
2023-01-13T03:09:53.531Z,0.5
2023-01-13T03:11:03.285Z,0.6
2023-01-13T03:12:12.009Z,0.5
2023-01-13T03:13:20.761Z,0.4
2023-01-13T03:14:30.505Z,0.5
2023-01-13T03:15:40.293Z,0.5
2023-01-13T03:16:49.041Z,0.4
2023-01-13T03:17:58.749Z,0.7
2023-01-13T03:19:08.488Z,1.4
2023-01-13T03:20:18.229Z,0.5
2023-01-13T03:21:28.044Z,0.4
2023-01-13T03:22:37.759Z,1.6
2023-01-13T03:23:46.540Z,0.5
2023-01-13T03:24:56.322Z,0.6
2023-01-13T03:26:06.062Z,0.5
2023-01-13T03:27:14.837Z,0.5
2023-01-13T03:28:24.601Z,0.5
2023-01-13T03:29:34.322Z,0.7
2023-01-13T03:30:44.099Z,0.8
2023-01-13T03:31:52.773Z,0.7
2023-01-13T03:33:02.566Z,0.4
2023-01-13T03:34:12.295Z,3.4
2023-01-13T03:35:20.040Z,0.6
2023-01-13T03:36:29.856Z,0.9
2023-01-13T03:37:39.593Z,0.5
2023-01-13T03:38:48.383Z,0.5
2023-01-13T03:39:58.125Z,0.6
2023-01-13T03:41:07.849Z,0.7
2023-01-13T03:42:16.566Z,0.5
2023-01-13T03:43:26.323Z,0.5
2023-01-13T03:44:36.024Z,0.6
2023-01-13T03:45:45.729Z,0.5
2023-01-13T03:46:54.349Z,0.4
2023-01-13T03:48:03.037Z,0.4
2023-01-13T03:49:12.759Z,0.6
2023-01-13T03:50:22.530Z,0.5
2023-01-13T03:51:32.297Z,0.6
2023-01-13T03:52:42.043Z,0.8
2023-01-13T03:53:51.822Z,0.5
2023-01-13T03:55:01.591Z,0.5
2023-01-13T03:56:10.425Z,0.6
2023-01-13T03:57:20.179Z,0.5
2023-01-13T03:58:29.926Z,0.5
2023-01-13T03:59:38.668Z,0.6
2023-01-13T04:00:48.391Z,0.5
2023-01-13T04:01:58.289Z,0.6
2023-01-13T04:03:07.947Z,0.6
2023-01-13T04:04:17.669Z,0.5
2023-01-13T04:05:27.422Z,0.5
2023-01-13T04:06:37.218Z,0.6
2023-01-13T04:07:46.952Z,0.5
2023-01-13T04:08:56.682Z,2.1
2023-01-13T04:10:06.449Z,0.8
2023-01-13T04:11:16.206Z,0.6
2023-01-13T04:12:25.956Z,0.7
2023-01-13T04:13:35.705Z,0.7
2023-01-13T04:14:45.449Z,0.9
2023-01-13T04:15:54.241Z,0.5
2023-01-13T04:17:03.944Z,0.7
2023-01-13T04:18:13.719Z,0.5
2023-01-13T04:19:27.760Z,0.5
2023-01-13T04:20:38.247Z,0.4
2023-01-13T04:21:47.076Z,0.5
2023-01-13T04:22:56.836Z,0.4
2023-01-13T04:24:05.547Z,0.4
2023-01-13T04:25:15.307Z,0.4
2023-01-13T04:26:25.078Z,0.5
2023-01-13T04:27:34.820Z,0.4
2023-01-13T04:28:44.546Z,0.5
2023-01-13T04:29:54.339Z,1
2023-01-13T04:31:03.134Z,0.5
2023-01-13T04:32:12.848Z,0.5
2023-01-13T04:33:22.626Z,0.4
2023-01-13T04:34:32.371Z,0.5
2023-01-13T04:35:42.098Z,0.5
2023-01-13T04:36:51.968Z,0.4
2023-01-13T04:38:01.674Z,0.5
2023-01-13T04:39:11.472Z,0.6
2023-01-13T04:40:21.244Z,0.5
2023-01-13T04:41:30.998Z,0.4
2023-01-13T04:42:40.784Z,0.3
2023-01-13T04:43:50.561Z,0.4
2023-01-13T04:45:00.319Z,0.6
2023-01-13T04:46:09.181Z,0.4
2023-01-13T04:47:18.817Z,0.4
2023-01-13T04:48:28.600Z,0.3
2023-01-13T04:49:38.355Z,0.3
2023-01-13T04:50:48.084Z,0.4
2023-01-13T04:51:57.841Z,0.3
2023-01-13T04:53:06.539Z,0.3
2023-01-13T04:54:16.350Z,0.4
2023-01-13T04:55:26.062Z,0.5
2023-01-13T04:56:35.794Z,0.9
2023-01-13T04:57:45.538Z,0.4
2023-01-13T04:58:54.260Z,0.5
2023-01-13T05:00:04.032Z,0.4
2023-01-13T05:01:13.915Z,0.3
2023-01-13T05:02:22.583Z,0.4
2023-01-13T05:03:32.298Z,0.5
2023-01-13T05:04:42.097Z,0.5
2023-01-13T05:05:51.865Z,0.5
2023-01-13T05:07:01.648Z,0.7
2023-01-13T05:08:11.418Z,0.5
2023-01-13T05:09:21.145Z,0.6
2023-01-13T05:10:29.923Z,0.5
2023-01-13T05:11:38.667Z,0.5
2023-01-13T05:12:48.438Z,0.6
2023-01-13T05:13:57.280Z,0.8
2023-01-13T05:15:07.110Z,0.8
2023-01-13T05:16:15.970Z,0.7
2023-01-13T05:17:25.727Z,0.6
2023-01-13T05:18:35.445Z,0.7
2023-01-13T05:19:44.220Z,0.5
2023-01-13T05:20:52.980Z,0.6
2023-01-13T05:22:02.727Z,0.6
2023-01-13T05:23:11.546Z,0.5
2023-01-13T05:24:21.219Z,0.4
2023-01-13T05:25:30.957Z,0.4
2023-01-13T05:26:40.697Z,0.3
2023-01-13T05:27:50.476Z,0.3
2023-01-13T05:29:00.269Z,0.3
2023-01-13T05:30:10.075Z,0.3
2023-01-13T05:31:20.876Z,0.4
2023-01-13T05:32:29.556Z,0.4
2023-01-13T05:33:39.284Z,0.4
2023-01-13T05:34:49.057Z,0.3
2023-01-13T05:35:58.795Z,0.3
2023-01-13T05:37:08.530Z,0.4
2023-01-13T05:38:18.288Z,0.3
2023-01-13T05:39:28.039Z,0.3
2023-01-13T05:40:36.827Z,0.5
2023-01-13T05:41:46.569Z,0.5
2023-01-13T05:42:56.317Z,1.4
2023-01-13T05:44:05.058Z,1
2023-01-13T05:45:13.771Z,0.8
2023-01-13T05:46:23.566Z,0.9
2023-01-13T05:47:32.311Z,0.7
2023-01-13T05:48:42.045Z,1.1
2023-01-13T05:49:51.775Z,0.9
2023-01-13T05:51:00.516Z,1.4
2023-01-13T05:52:10.278Z,0.9
2023-01-13T05:53:20.050Z,1
2023-01-13T05:54:29.785Z,1.2
2023-01-13T05:55:39.511Z,0.7
2023-01-13T05:56:49.249Z,0.7
2023-01-13T05:57:59.046Z,0.6
2023-01-13T05:59:09.771Z,0.7
2023-01-13T06:00:19.538Z,0.5
2023-01-13T06:01:29.332Z,0.5
2023-01-13T06:02:38.070Z,0.4
2023-01-13T06:03:47.788Z,0.5
2023-01-13T06:04:57.527Z,0.5
2023-01-13T06:06:06.267Z,0.5
2023-01-13T06:07:16.124Z,0.6
2023-01-13T06:08:25.876Z,0.6
2023-01-13T06:09:33.680Z,0.7
2023-01-13T06:10:43.404Z,0.8
2023-01-13T06:11:53.150Z,0.9
2023-01-13T06:13:02.886Z,0.7
2023-01-13T06:14:11.622Z,0.9
2023-01-13T06:15:19.373Z,1
2023-01-13T06:16:29.146Z,1.1
2023-01-13T06:17:38.821Z,1
2023-01-13T06:18:46.567Z,1.1
2023-01-13T06:19:56.302Z,1
2023-01-13T06:21:05.136Z,0.9
2023-01-13T06:22:14.845Z,1.2
2023-01-13T06:23:23.581Z,0.8
2023-01-13T06:24:32.304Z,0.9
2023-01-13T06:25:42.129Z,1
2023-01-13T06:26:51.866Z,1
2023-01-13T06:28:00.633Z,0.9
2023-01-13T06:29:10.381Z,0.6
2023-01-13T06:30:20.134Z,0.8
2023-01-13T06:31:29.914Z,0.7
2023-01-13T06:32:38.748Z,0.7
2023-01-13T06:33:47.491Z,0.6
2023-01-13T06:34:57.227Z,0.6
2023-01-13T06:36:06.961Z,0.8
2023-01-13T06:37:16.703Z,0.6
2023-01-13T06:38:26.498Z,0.5
2023-01-13T06:39:36.252Z,0.5
2023-01-13T06:40:46.042Z,0.6
2023-01-13T06:41:55.765Z,0.5
2023-01-13T06:43:05.493Z,0.5
2023-01-13T06:44:15.243Z,0.6
2023-01-13T06:45:24.002Z,0.5
2023-01-13T06:46:32.754Z,0.4
2023-01-13T06:47:42.478Z,0.5
2023-01-13T06:48:51.193Z,0.4
2023-01-13T06:50:01.004Z,0.6
2023-01-13T06:51:10.727Z,0.8
2023-01-13T06:52:19.497Z,0.6
2023-01-13T06:53:29.237Z,0.5
2023-01-13T06:54:39.060Z,0.5
2023-01-13T06:55:47.815Z,0.6
2023-01-13T06:56:57.604Z,0.4
2023-01-13T06:58:07.315Z,0.9
2023-01-13T06:59:17.074Z,0.7
2023-01-13T07:00:26.819Z,0.6
2023-01-13T07:01:36.686Z,0.6
2023-01-13T07:02:47.312Z,0.7
2023-01-13T07:03:57.076Z,0.7
2023-01-13T07:05:05.807Z,0.8
2023-01-13T07:06:15.550Z,0.7
2023-01-13T07:07:24.358Z,0.7
2023-01-13T07:08:34.105Z,0.9
2023-01-13T07:09:43.847Z,0.7
2023-01-13T07:10:53.618Z,0.7
2023-01-13T07:12:02.362Z,0.7
2023-01-13T07:13:12.109Z,0.5
2023-01-13T07:14:21.827Z,1.3
2023-01-13T07:15:31.572Z,0.8
2023-01-13T07:16:40.334Z,0.9
2023-01-13T07:17:50.048Z,0.8
2023-01-13T07:18:58.850Z,0.9
2023-01-13T07:20:07.574Z,1.2
2023-01-13T07:21:17.335Z,0.9
2023-01-13T07:22:27.065Z,0.7
2023-01-13T07:23:36.793Z,1.3
2023-01-13T07:24:46.638Z,0.8
2023-01-13T07:25:56.389Z,0.8
2023-01-13T07:27:06.169Z,1.1
2023-01-13T07:28:14.919Z,1.2
2023-01-13T07:29:23.694Z,0.9
2023-01-13T07:30:33.427Z,0.7
2023-01-13T07:31:43.210Z,1.1
2023-01-13T07:32:52.927Z,0.9
2023-01-13T07:34:03.195Z,0.7
2023-01-13T07:35:11.976Z,1
2023-01-13T07:36:21.713Z,1.3
2023-01-13T07:37:31.466Z,0.7
2023-01-13T07:38:41.213Z,0.9
2023-01-13T07:39:50.970Z,1
2023-01-13T07:40:59.724Z,2
2023-01-13T07:42:09.550Z,0.9
2023-01-13T07:43:19.231Z,1
2023-01-13T07:44:28.971Z,0.8
2023-01-13T07:45:38.788Z,0.8
2023-01-13T07:46:48.486Z,0.7
2023-01-13T07:47:58.272Z,1.4
2023-01-13T07:49:07.993Z,0.8
2023-01-13T07:50:17.742Z,2.3
2023-01-13T07:51:27.475Z,0.9
2023-01-13T07:52:37.233Z,1
2023-01-13T07:53:45.996Z,1
2023-01-13T07:54:55.698Z,1
2023-01-13T07:56:05.412Z,2.8
2023-01-13T07:57:15.173Z,1.1
2023-01-13T07:58:24.869Z,1.9
2023-01-13T07:59:34.636Z,0.8
2023-01-13T08:00:44.416Z,1.2
2023-01-13T08:01:54.396Z,1.2
2023-01-13T08:03:02.926Z,2
2023-01-13T08:04:12.645Z,1.1
2023-01-13T08:05:22.428Z,0.9
2023-01-13T08:06:32.188Z,0.9
2023-01-13T08:07:41.954Z,1.1
2023-01-13T08:08:51.694Z,0.8
2023-01-13T08:10:01.459Z,0.7
2023-01-13T08:11:11.209Z,0.7
2023-01-13T08:12:20.037Z,0.5
2023-01-13T08:13:29.715Z,0.4
2023-01-13T08:14:39.488Z,0.4
2023-01-13T08:15:48.228Z,0.7
2023-01-13T08:16:58.025Z,0.3
2023-01-13T08:18:07.771Z,1.6
2023-01-13T08:19:17.559Z,0.4
2023-01-13T08:20:27.363Z,0.4
2023-01-13T08:21:37.126Z,0.2
2023-01-13T08:22:46.907Z,0.3
2023-01-13T08:23:56.665Z,0.2
2023-01-13T08:25:06.371Z,0.3
2023-01-13T08:26:15.195Z,0.4
2023-01-13T08:27:24.913Z,0.5
2023-01-13T08:28:34.592Z,0.3
2023-01-13T08:29:43.351Z,0.3
2023-01-13T08:30:53.181Z,0.4
2023-01-13T08:32:02.854Z,0.5
2023-01-13T08:33:12.574Z,1.4
2023-01-13T08:34:21.336Z,0.7
2023-01-13T08:35:30.054Z,0.8
2023-01-13T08:36:39.778Z,0.6
2023-01-13T08:37:49.559Z,0.8
2023-01-13T08:38:59.253Z,0.6
2023-01-13T08:40:09.004Z,0.4
2023-01-13T08:41:18.728Z,0.4
2023-01-13T08:42:28.511Z,0.4
2023-01-13T08:43:38.271Z,0.4
2023-01-13T08:44:48.024Z,0.5
2023-01-13T08:45:57.915Z,0.5
2023-01-13T08:47:06.516Z,0.6
2023-01-13T08:48:15.476Z,0.7
2023-01-13T08:49:25.242Z,0.5
2023-01-13T08:50:35.023Z,0.4
2023-01-13T08:51:44.808Z,0.7
2023-01-13T08:52:54.559Z,0.4
2023-01-13T08:54:04.303Z,0.4
2023-01-13T08:55:13.044Z,0.4
2023-01-13T08:56:22.807Z,0.3
2023-01-13T08:57:32.582Z,0.4
2023-01-13T08:58:42.307Z,0.5
2023-01-13T08:59:52.053Z,0.6
2023-01-13T09:01:01.894Z,0.5
2023-01-13T09:02:11.615Z,0.5
2023-01-13T09:03:21.331Z,0.4
2023-01-13T09:04:31.081Z,0.3
2023-01-13T09:05:40.777Z,0.6
2023-01-13T09:06:50.518Z,0.5
2023-01-13T09:08:00.244Z,1
2023-01-13T09:09:10.005Z,0.5
2023-01-13T09:10:19.696Z,0.4
2023-01-13T09:11:29.454Z,0.4
2023-01-13T09:12:38.235Z,0.6
2023-01-13T09:13:46.928Z,0.7
2023-01-13T09:14:56.777Z,0.5
2023-01-13T09:16:06.540Z,0.8
2023-01-13T09:17:15.245Z,0.3
2023-01-13T09:18:25.055Z,0.4
2023-01-13T09:19:34.760Z,0.7
2023-01-13T09:20:44.559Z,1
2023-01-13T09:21:54.320Z,1.5
2023-01-13T09:23:04.062Z,1.3
2023-01-13T09:24:14.809Z,1
2023-01-13T09:25:24.552Z,0.6
2023-01-13T09:26:34.292Z,0.5
2023-01-13T09:27:44.039Z,0.4
2023-01-13T09:28:53.753Z,0.2
2023-01-13T09:30:03.510Z,0.2
2023-01-13T09:31:13.281Z,0.2
2023-01-13T09:32:23.041Z,0.2
2023-01-13T09:33:31.826Z,0.3
2023-01-13T09:34:40.531Z,0.2
2023-01-13T09:35:50.318Z,0.3
2023-01-13T09:37:00.058Z,0.7
2023-01-13T09:38:08.838Z,0.5
2023-01-13T09:39:18.628Z,0.3
2023-01-13T09:40:27.423Z,0.8
2023-01-13T09:41:37.162Z,0.5
2023-01-13T09:42:46.927Z,0.6
2023-01-13T09:43:56.692Z,0.4
2023-01-13T09:45:06.461Z,0.4
2023-01-13T09:46:16.221Z,0.3
2023-01-13T09:47:25.992Z,2.6
2023-01-13T09:48:35.772Z,6.2
2023-01-13T09:49:44.543Z,0.3
2023-01-13T09:50:54.317Z,0.3
2023-01-13T09:52:03.063Z,0.3
2023-01-13T09:53:12.822Z,0.3
2023-01-13T09:54:22.579Z,0.3
2023-01-13T09:55:32.343Z,0.4
2023-01-13T09:56:40.063Z,0.4
2023-01-13T09:57:49.835Z,0.5
2023-01-13T09:58:59.553Z,0.2
2023-01-13T10:00:08.340Z,0.4
2023-01-13T10:01:18.178Z,0.4
2023-01-13T10:02:27.900Z,0.3
2023-01-13T10:03:37.661Z,0.2
2023-01-13T10:04:47.486Z,0.3
2023-01-13T10:05:55.174Z,0.5
2023-01-13T10:07:04.938Z,0.3
2023-01-13T10:08:14.693Z,0.5
2023-01-13T10:09:23.500Z,0.4
2023-01-13T10:10:33.320Z,0.3
2023-01-13T10:11:41.045Z,0.4
2023-01-13T10:12:50.851Z,0.2
2023-01-13T10:14:00.612Z,0.1
2023-01-13T10:15:10.393Z,0.2
2023-01-13T10:16:20.194Z,0.2
2023-01-13T10:17:29.859Z,0.3
2023-01-13T10:18:39.652Z,0.2
2023-01-13T10:19:49.371Z,0.2
2023-01-13T10:20:58.117Z,0.2
2023-01-13T10:22:09.302Z,0.1
2023-01-13T10:23:17.611Z,0.3
2023-01-13T10:24:26.376Z,0.2
2023-01-13T10:25:36.141Z,0.1
2023-01-13T10:26:44.937Z,0.2
2023-01-13T10:27:54.684Z,0.2
2023-01-13T10:29:04.446Z,0.2
2023-01-13T10:30:14.192Z,0.2
2023-01-13T10:31:24.017Z,0.3
2023-01-13T10:32:32.678Z,0.3
2023-01-13T10:33:42.461Z,0.4
2023-01-13T10:34:52.174Z,0.7
2023-01-13T10:36:00.869Z,0.2
2023-01-13T10:37:09.560Z,0.2
2023-01-13T10:38:19.295Z,0.4
2023-01-13T10:39:29.019Z,0.2
2023-01-13T10:40:38.806Z,0.3
2023-01-13T10:41:48.588Z,0.3
2023-01-13T10:42:58.360Z,0.3
2023-01-13T10:44:09.672Z,0.3
2023-01-13T10:45:17.890Z,0.3
2023-01-13T10:46:27.743Z,0.3
2023-01-13T10:47:36.427Z,0.3
2023-01-13T10:48:46.197Z,0.3
2023-01-13T10:49:56.013Z,0.6
2023-01-13T10:51:04.787Z,0.6
2023-01-13T10:52:13.653Z,0.8
2023-01-13T10:53:23.369Z,0.4
2023-01-13T10:54:33.143Z,0.4
2023-01-13T10:55:42.871Z,0.3
2023-01-13T10:56:52.623Z,0.1
2023-01-13T10:58:02.364Z,0.3
2023-01-13T10:59:12.179Z,0.2
2023-01-13T11:00:21.987Z,0.2
2023-01-13T11:01:30.908Z,0.2
2023-01-13T11:02:40.589Z,0.2
2023-01-13T11:03:50.259Z,0.4
2023-01-13T11:05:00.094Z,0.2
2023-01-13T11:06:09.747Z,0.6
2023-01-13T11:07:19.516Z,0.2
2023-01-13T11:08:29.334Z,0.3
2023-01-13T11:09:39.120Z,0.4
2023-01-13T11:10:47.889Z,0.2
2023-01-13T11:11:57.665Z,0.3
2023-01-13T11:13:08.364Z,0.2
2023-01-13T11:14:18.170Z,0.3
2023-01-13T11:15:27.862Z,0.4
2023-01-13T11:16:36.801Z,0.4
2023-01-13T11:17:47.384Z,0.4
2023-01-13T11:18:56.144Z,0.4
2023-01-13T11:20:05.901Z,0.4
2023-01-13T11:21:15.711Z,0.3
2023-01-13T11:22:25.453Z,0.3
2023-01-13T11:23:35.219Z,0.4
2023-01-13T11:24:43.978Z,0.3
2023-01-13T11:25:53.750Z,0.4
2023-01-13T11:27:03.555Z,0.5
2023-01-13T11:28:13.388Z,0.4
2023-01-13T11:29:23.175Z,0.9
2023-01-13T11:30:32.919Z,0.3
2023-01-13T11:31:42.660Z,0.4
2023-01-13T11:32:52.416Z,0.5
2023-01-13T11:34:02.165Z,0.8
2023-01-13T11:35:11.905Z,0.9
2023-01-13T11:36:21.688Z,0.6
2023-01-13T11:37:31.400Z,0.4
2023-01-13T11:38:41.152Z,0.3
2023-01-13T11:39:50.922Z,0.4
2023-01-13T11:41:00.688Z,0.2
2023-01-13T11:42:10.439Z,0.3
2023-01-13T11:43:20.198Z,0.5
2023-01-13T11:44:28.983Z,0.2
2023-01-13T11:45:38.746Z,0.2
2023-01-13T11:46:47.528Z,0.2
2023-01-13T11:47:56.234Z,0.2
2023-01-13T11:49:06.077Z,0.4
2023-01-13T11:50:15.956Z,0.2
2023-01-13T11:51:25.724Z,0.3
2023-01-13T11:52:35.441Z,0.2
2023-01-13T11:53:44.275Z,0.2
2023-01-13T11:54:53.042Z,0.2
2023-01-13T11:56:01.764Z,0.4
2023-01-13T11:57:11.615Z,0.3
2023-01-13T11:58:21.419Z,0.3
2023-01-13T11:59:30.138Z,0.4
2023-01-13T12:00:39.986Z,0.3
2023-01-13T12:01:49.808Z,0.3
2023-01-13T12:02:59.946Z,0.2
2023-01-13T12:04:09.543Z,0.2
2023-01-13T12:05:17.196Z,0.3
2023-01-13T12:06:27.073Z,0.7
2023-01-13T12:07:36.853Z,0.7
2023-01-13T12:08:46.596Z,0.7
2023-01-13T12:09:56.431Z,0.7
2023-01-13T12:11:06.177Z,0.7
2023-01-13T12:12:15.978Z,0.7
2023-01-13T12:13:25.772Z,0.7
2023-01-13T12:14:34.538Z,0.7
2023-01-13T12:15:44.408Z,0.7
2023-01-13T12:16:54.186Z,0.7
2023-01-13T12:18:03.811Z,0.7
2023-01-13T12:19:13.506Z,0.7
2023-01-13T12:20:23.263Z,0.7
2023-01-13T12:21:33.011Z,0.7
2023-01-13T12:22:42.773Z,0.7
2023-01-13T12:23:51.513Z,0.7
2023-01-13T12:25:01.307Z,0.7
2023-01-13T12:26:11.066Z,0.7
2023-01-13T12:27:20.816Z,0.7
2023-01-13T12:28:30.751Z,0.7
2023-01-13T12:29:40.421Z,0.7
2023-01-13T12:30:50.181Z,0.7
2023-01-13T12:31:59.961Z,0.7
2023-01-13T12:33:09.635Z,0.7
2023-01-13T12:34:19.377Z,0.7
2023-01-13T12:35:29.083Z,0.7
2023-01-13T12:36:37.862Z,0.7
2023-01-13T12:37:47.550Z,0.7
2023-01-13T12:38:57.227Z,0.7
2023-01-13T12:40:05.994Z,0.7
2023-01-13T12:41:15.758Z,0.7
2023-01-13T12:42:24.474Z,0.7
2023-01-13T12:43:34.220Z,0.7
2023-01-13T12:44:43.952Z,0.7
2023-01-13T12:45:52.755Z,0.7
2023-01-13T12:47:02.480Z,0.7
2023-01-13T12:48:12.285Z,0.7
2023-01-13T12:49:22.064Z,0.7
2023-01-13T12:50:31.809Z,0.7
2023-01-13T12:51:40.520Z,0.7
2023-01-13T12:52:50.261Z,0.7
2023-01-13T12:54:00.013Z,0.7
2023-01-13T12:55:08.945Z,0.7
2023-01-13T12:56:18.711Z,0.7
2023-01-13T12:57:28.462Z,0.7
2023-01-13T12:58:38.198Z,0.7
2023-01-13T12:59:47.939Z,0.7
2023-01-13T13:00:57.841Z,0.7
2023-01-13T13:02:07.683Z,0.7
2023-01-13T13:03:19.405Z,0.7
2023-01-13T13:04:26.937Z,0.7
2023-01-13T13:05:36.604Z,0.7
2023-01-13T13:06:45.285Z,0.7
2023-01-13T13:07:53.963Z,0.7
2023-01-13T13:09:04.308Z,0.7
2023-01-13T13:10:13.428Z,0.7
2023-01-13T13:11:23.159Z,0.7
2023-01-13T13:12:31.992Z,0.7
2023-01-13T13:13:41.728Z,0.7
2023-01-13T13:14:51.668Z,0.7
2023-01-13T13:16:01.324Z,0.7
2023-01-13T13:17:11.092Z,0.7
2023-01-13T13:18:19.910Z,0.7
2023-01-13T13:19:28.609Z,0.7
2023-01-13T13:20:38.353Z,0.7
2023-01-13T13:21:48.114Z,0.7
2023-01-13T13:22:57.845Z,0.7
2023-01-13T13:24:07.655Z,0.7
2023-01-13T13:25:16.384Z,0.7
2023-01-13T13:26:26.180Z,0.7
2023-01-13T13:27:35.912Z,0.7
2023-01-13T13:28:45.670Z,0.7
2023-01-13T13:29:55.479Z,0.7
2023-01-13T13:31:05.358Z,0.7
2023-01-13T13:32:15.013Z,0.7
2023-01-13T13:33:24.731Z,0.7
2023-01-13T13:34:34.452Z,0.7
2023-01-13T13:35:44.225Z,0.7
2023-01-13T13:36:52.942Z,0.7
2023-01-13T13:38:02.677Z,0.7
2023-01-13T13:39:12.411Z,0.7
2023-01-13T13:40:22.201Z,0.7
2023-01-13T13:41:31.931Z,0.7
2023-01-13T13:42:41.711Z,0.7
2023-01-13T13:43:51.611Z,0.7
2023-01-13T13:45:01.366Z,0.7
2023-01-13T13:46:11.377Z,0.7
2023-01-13T13:47:21.145Z,0.7
2023-01-13T13:48:29.946Z,0.7
2023-01-13T13:49:39.672Z,0.7
2023-01-13T13:50:49.605Z,0.7
2023-01-13T13:51:58.336Z,0.7
2023-01-13T13:53:08.136Z,0.7
2023-01-13T13:54:17.868Z,0.7
2023-01-13T13:55:27.616Z,0.7
2023-01-13T13:56:37.338Z,0.7
2023-01-13T13:57:46.177Z,0.7
2023-01-13T13:58:55.982Z,0.7
2023-01-13T14:00:05.704Z,0.7
2023-01-13T14:01:14.556Z,0.7
2023-01-13T14:02:24.263Z,0.7
2023-01-13T14:03:33.989Z,0.7
2023-01-13T14:04:44.903Z,0.7
2023-01-13T14:05:54.586Z,0.7
2023-01-13T14:07:04.322Z,0.7
2023-01-13T14:08:11.963Z,0.7
2023-01-13T14:09:23.032Z,0.7
2023-01-13T14:10:33.385Z,0.7
2023-01-13T14:11:41.965Z,0.7
2023-01-13T14:12:51.736Z,0.7
2023-01-13T14:14:01.510Z,0.7
2023-01-13T14:15:10.242Z,0.7
2023-01-13T14:16:20.038Z,0.7
2023-01-13T14:17:29.748Z,0.7
2023-01-13T14:18:39.511Z,0.7
2023-01-13T14:19:49.247Z,0.7
2023-01-13T14:20:58.949Z,0.7
2023-01-13T14:22:08.711Z,0.7
2023-01-13T14:23:18.477Z,0.7
2023-01-13T14:24:28.209Z,0.7
2023-01-13T14:25:36.936Z,0.7
2023-01-13T14:26:46.662Z,0.7
2023-01-13T14:27:56.431Z,0.7
2023-01-13T14:29:06.145Z,0.7
2023-01-13T14:30:15.868Z,0.7
2023-01-13T14:31:25.639Z,0.7
2023-01-13T14:32:34.370Z,0.7
2023-01-13T14:33:44.190Z,0.7
2023-01-13T14:34:53.912Z,0.7
2023-01-13T14:36:03.674Z,0.7
2023-01-13T14:37:13.436Z,0.7
2023-01-13T14:38:23.275Z,0.7
2023-01-13T14:39:33.101Z,0.7
2023-01-13T14:40:42.817Z,0.7
2023-01-13T14:41:51.521Z,0.7
2023-01-13T14:43:01.252Z,0.7
2023-01-13T14:44:10.059Z,0.7
2023-01-13T14:45:19.877Z,0.7
2023-01-13T14:46:29.669Z,0.7
2023-01-13T14:47:39.369Z,0.7
2023-01-13T14:48:49.122Z,0.7
2023-01-13T14:49:58.885Z,0.7
2023-01-13T14:51:08.635Z,0.7
2023-01-13T14:52:18.373Z,0.7
2023-01-13T14:53:28.117Z,0.7
2023-01-13T14:54:36.831Z,0.7
2023-01-13T14:55:46.615Z,0.7
2023-01-13T14:56:55.338Z,0.7
2023-01-13T14:58:02.975Z,0.7
2023-01-13T14:59:12.638Z,0.7
2023-01-13T15:00:22.353Z,0.7
2023-01-13T15:01:32.187Z,0.7
2023-01-13T15:02:40.983Z,0.7
2023-01-13T15:03:50.663Z,0.7
2023-01-13T15:05:00.323Z,0.7
2023-01-13T15:06:08.977Z,0.7
2023-01-13T15:07:15.658Z,0.7
2023-01-13T15:08:25.376Z,0.7
2023-01-13T15:09:33.060Z,0.7
2023-01-13T15:10:42.810Z,0.7
2023-01-13T15:11:52.574Z,0.7
2023-01-13T15:13:02.308Z,0.7
2023-01-13T15:14:12.047Z,0.7
2023-01-13T15:15:20.775Z,0.7
2023-01-13T15:16:29.570Z,0.7
2023-01-13T15:17:40.275Z,0.7
2023-01-13T15:18:50.223Z,0.7
2023-01-13T15:19:59.728Z,0.7
2023-01-13T15:21:08.507Z,0.7
2023-01-13T15:22:18.217Z,0.7
2023-01-13T15:23:26.969Z,0.7
2023-01-13T15:24:34.641Z,0.7
2023-01-13T15:25:44.389Z,0.7
2023-01-13T15:26:54.089Z,0.7
2023-01-13T15:28:02.781Z,0.7
2023-01-13T15:29:12.420Z,0.7
2023-01-13T15:30:22.165Z,0.7
2023-01-13T15:31:32.038Z,0.7
2023-01-13T15:32:41.757Z,0.7
2023-01-13T15:33:50.502Z,0.7
2023-01-13T15:35:00.318Z,0.7
2023-01-13T15:36:10.034Z,0.7
2023-01-13T15:37:19.811Z,0.7
2023-01-13T15:38:29.539Z,0.7
2023-01-13T15:39:39.271Z,0.7
2023-01-13T15:40:49.011Z,0.7
2023-01-13T15:41:58.764Z,0.7
2023-01-13T15:43:08.574Z,0.7
2023-01-13T15:44:18.331Z,0.7
2023-01-13T15:45:28.053Z,0.7
2023-01-13T15:46:37.927Z,0.7
2023-01-13T15:47:47.542Z,0.7
2023-01-13T15:48:57.273Z,0.7
2023-01-13T15:50:07.033Z,0.7
2023-01-13T15:51:16.749Z,0.7
2023-01-13T15:52:26.503Z,0.7
2023-01-13T15:53:36.221Z,0.7
2023-01-13T15:54:45.992Z,0.7
2023-01-13T15:55:54.718Z,0.7
2023-01-13T15:57:04.505Z,0.7
2023-01-13T15:58:14.246Z,0.7
2023-01-13T15:59:23.980Z,0.7